Burbaguena, Spain

7:35 PM CEST on April 26, 2017 (GMT +0200)
Calamocha-Puente Romano | | Change Station

Elev 2904 ft 40.92 °N, 1.30 °W | Updated 44 seconds ago

Overcast
Overcast
43.3 °F
Feels Like 43 °F
N
0.7
Wind Variable Wind from North
Gusts 3.1 mph

Today
High -- | Low -- °F
--% Chance of Precip.
Yesterday
High -- | Low -- °F
Precip. -- in
Pressure 29.80 in
Visibility 6.2 miles
Clouds Overcast 3300 ft
Windchill 43 °F
Dew Point 36 °F
Humidity 75%
Rainfall 0.13 in
Snow Depth Not available.
7:10 AM 8:56 PM
New Moon, 0% visible
METAR LETL 261700Z AUTO 33017KT 9999 OVC033/// 10/04 Q1009
Pressure 29.80 in
Visibility 6.2 miles
Clouds Overcast 3300 ft
Windchill 43 °F
Dew Point 36 °F
Humidity 75%
Rainfall 0.13 in
Snow Depth Not available.
7:10 AM 8:56 PM
New Moon, 0% visible
METAR LETL 261700Z AUTO 33017KT 9999 OVC033/// 10/04 Q1009

Get Severe Weather Alerts

Thanks for signing up!

Be on the lookout for a verification email in your inbox.

You'll start receiving the daily forecast at 8 AM.

×

10-Day Weather Forecast

×

Almanac

Astronomy

Apr. 26, 2017 Rise Set
Actual Time
Civil Twilight
Nautical Twilight
Astronomical Twilight
Moon
Length of Visible Light
Length of Day
Tomorrow will be .
, % of the Moon is Illuminated

Today's Extremes

Country Highs Country Lows

Community

WunderPhotos

WunderBlog® & News

Nearby

Air Quality

  Air Quality AQ Index Pollutant
Not available.

Snow Depth

Station Depth Elevation

Earthquake Activity

City Distance Mag. Time & Date
Minimum magnitude displayed is 2.5.

Coastal Water Temperatures

Place Temperature

Stations

Nearby Weather Stations

Station Location Temp. Windchill Dew Point Humidity Wind Precip. Elev Updated Type